No particular awareness of the weather is required.    There are no Weather-warnings


Ulpukkaniemi more information Ulpukkaniemi


Yksityisiä sääasemia lähellä:

Template documentation
and downloads

And another site


Löydät sääaseman tiedot myös:

European Weather Network



Säätiedot lähimmiltä METAR asemilta

   
EBAW - Antwerp
Päivitetty: 24-09-2018 17:50
Vähäistä pilvisyyttä  
Vähäistä pilvisyyttä  
   Tuuli: Pohjoisluode 6.2 m/s
Tuuli: Pohjoisluode 6.2 m/s
Lämpötila: 14°C
Kastepiste: 5°C
Kosteus: 55%
Ilmanpaine: 1036 hPa
Pilvisyys: Vähäistä pilvisyyttä
Näkyvyys: Enemmän kuin 10 km
Pilvitiedot: Vähäistä pilvisyyttä 3200 ft
EBAW 241450Z 33012KT 9999 FEW032 14/05 Q1036 NOSIG
EBLG - Liège
Päivitetty: 24-09-2018 17:50
Vähäistä pilvisyyttä  
Vähäistä pilvisyyttä  
   Tuuli: Pohjoisluode 4.1 m/s
Tuuli: Pohjoisluode 4.1 m/s
Lämpötila: 13°C
Kastepiste: 5°C
Kosteus: 59%
Ilmanpaine: 1035 hPa
Pilvisyys: Vähäistä pilvisyyttä
Näkyvyys: Enemmän kuin 10 km
Pilvitiedot: Vähäistä pilvisyyttä 3000 ft
EBLG 241450Z 34008KT 300V360 9999 FEW030 13/05 Q1035 NOSIG
EBCV - Mons/Bergen
Päivitetty: 20-09-2018 17:25
EI Ajankohtaista
Vähäistä pilvisyyttä  
Vähäistä pilvisyyttä  
   Tuuli: Etelä 7.2 m/s
Tuuli: Etelä 7.2 m/s
Lämpötila: 24°C
Kastepiste: 13°C
Kosteus: 50%
Ilmanpaine: 1014 hPa
Pilvisyys: Vähäistä pilvisyyttä
Näkyvyys: Enemmän kuin 10 km
Pilvitiedot: Vähäistä pilvisyyttä 21000 ft
EBCV 201425Z AUTO 19014KT 9999 FEW210/// 24/13 Q1014 BLU
EHBK - Maastricht
Päivitetty: 24-09-2018 17:55
Puolipilvistä  
Puolipilvistä  
   Tuuli: vaihtelee 1 m/s
Tuuli: vaihtelee 1 m/s
Lämpötila: 12°C
Kastepiste: 9°C
Kosteus: 82%
Ilmanpaine: 1034 hPa
Pilvisyys: Puolipilvistä
Näkyvyys: Enemmän kuin 10 km
Pilvitiedot: Puolipilvistä
EHBK 241455Z AUTO VRB02KT 9999 NSC 12/09 Q1034 REDZ TEMPO 7000 -SHRA FEW030CB
ELLX - Luxemburg
Päivitetty: 24-09-2018 17:50
Selkeää  
Selkeää  
   Tuuli: Pohjoinen 5.1 m/s
Tuuli: Pohjoinen 5.1 m/s
Lämpötila: 12°C
Kastepiste: 5°C
Kosteus: 63%
Ilmanpaine: 1034 hPa
Näkyvyys: Enemmän kuin 10 km
Pilvitiedot: Selkeää
ELLX 241450Z 36010KT CAVOK 12/05 Q1034 NOSIG
EBOS - Oostende
Päivitetty: 24-09-2018 17:50
Vähäistä pilvisyyttä  
Vähäistä pilvisyyttä  
   Tuuli: Pohjoinen 4.6 m/s
Tuuli: Pohjoinen 4.6 m/s
Lämpötila: 14°C
Kastepiste: 5°C
Kosteus: 55%
Ilmanpaine: 1037 hPa
Pilvisyys: Vähäistä pilvisyyttä
Näkyvyys: Enemmän kuin 10 km
Pilvitiedot: Vähäistä pilvisyyttä 3900 ft
EBOS 241450Z 35009KT 9999 FEW039 14/05 Q1037 NOSIG

Alkuperäinen skripti  Saratoga-weather.org Sovitettu myös templatelle  Weerstation Leuven

Laitteet joita käytämme:

Sääasema
WS3083

Sääasemaohjelma
Cumulus

Sääaseman tietokone
RaspberryPI

Palveluntarjoaja
Suncomet

WS3083

Cumulus

RaspberryPI

Suncomet